createdAt,value
2023-05-16T00:00:40.597Z,7.68
2023-05-16T00:03:07.540Z,7.57
2023-05-16T00:05:34.614Z,7.88
2023-05-16T00:08:01.478Z,7.57
2023-05-16T00:10:28.507Z,7.40
2023-05-16T00:12:56.406Z,7.57
2023-05-16T00:15:25.039Z,8.63
2023-05-16T00:17:52.155Z,6.75
2023-05-16T00:20:23.247Z,6.70
2023-05-16T00:22:50.790Z,7.03
2023-05-16T00:25:17.889Z,7.18
2023-05-16T00:27:44.778Z,7.15
2023-05-16T00:30:12.166Z,6.85
2023-05-16T00:32:39.367Z,8.02
2023-05-16T00:35:10.575Z,7.90
2023-05-16T00:37:38.612Z,6.97
2023-05-16T00:40:06.109Z,7.53
2023-05-16T00:42:33.040Z,7.07
2023-05-16T00:45:01.133Z,7.65
2023-05-16T00:47:28.906Z,8.57
2023-05-16T00:49:56.193Z,7.30
2023-05-16T00:52:23.349Z,7.30
2023-05-16T00:54:51.243Z,7.57
2023-05-16T00:57:18.157Z,7.57
2023-05-16T00:59:46.402Z,7.35
2023-05-16T01:02:14.338Z,7.25
2023-05-16T01:04:41.470Z,7.40
2023-05-16T01:07:08.315Z,7.35
2023-05-16T01:09:35.959Z,6.85
2023-05-16T01:12:17.940Z,7.50
2023-05-16T01:15:13.372Z,7.20
2023-05-16T01:18:02.017Z,6.90
2023-05-16T01:20:38.340Z,6.32
2023-05-16T01:23:06.140Z,7.18
2023-05-16T01:25:45.523Z,7.70
2023-05-16T01:28:16.745Z,7.30
2023-05-16T01:30:43.603Z,7.72
2023-05-16T01:33:10.548Z,8.00
2023-05-16T01:35:59.539Z,7.82
2023-05-16T01:38:27.639Z,7.28
2023-05-16T01:41:17.376Z,7.30
2023-05-16T01:43:46.411Z,8.70
2023-05-16T01:46:15.387Z,7.35
2023-05-16T01:48:56.219Z,7.85
2023-05-16T01:51:23.200Z,9.07
2023-05-16T01:53:50.252Z,7.90
2023-05-16T01:56:17.166Z,7.60
2023-05-16T01:58:44.027Z,7.93
2023-05-16T02:01:11.666Z,9.07
2023-05-16T02:03:38.599Z,8.57
2023-05-16T02:06:07.729Z,7.80
2023-05-16T02:08:34.629Z,7.95
2023-05-16T02:11:01.446Z,7.85
2023-05-16T02:13:28.364Z,6.72
2023-05-16T02:15:55.417Z,7.07
2023-05-16T02:18:23.695Z,8.40
2023-05-16T02:20:51.325Z,7.95
2023-05-16T02:23:18.393Z,8.05
2023-05-16T02:25:45.276Z,7.68
2023-05-16T02:28:12.137Z,7.60
2023-05-16T02:30:39.082Z,7.72
2023-05-16T02:33:06.200Z,8.40
2023-05-16T02:35:33.089Z,7.53
2023-05-16T02:38:00.313Z,7.88
2023-05-16T02:40:27.259Z,7.82
2023-05-16T02:42:54.061Z,7.63
2023-05-16T02:45:21.134Z,8.00
2023-05-16T02:47:48.088Z,8.15
2023-05-16T02:50:14.935Z,7.88
2023-05-16T02:52:41.826Z,8.85
2023-05-16T02:55:21.707Z,8.60
2023-05-16T02:57:50.752Z,11.18
2023-05-16T03:00:18.762Z,9.43
2023-05-16T03:02:46.167Z,8.90
2023-05-16T03:05:13.202Z,8.85
2023-05-16T03:07:40.473Z,8.32
2023-05-16T03:10:08.024Z,9.45
2023-05-16T03:12:34.865Z,9.25
2023-05-16T03:15:01.970Z,10.13
2023-05-16T03:17:29.660Z,11.18
2023-05-16T03:19:57.492Z,10.43
2023-05-16T03:22:24.356Z,10.07
2023-05-16T03:24:51.269Z,10.38
2023-05-16T03:27:18.166Z,10.15
2023-05-16T03:29:45.026Z,9.90
2023-05-16T03:32:12.109Z,8.85
2023-05-16T03:34:39.107Z,11.40
2023-05-16T03:37:06.580Z,10.23
2023-05-16T03:39:33.701Z,11.05
2023-05-16T03:42:00.749Z,10.40
2023-05-16T03:44:27.534Z,10.63
2023-05-16T03:46:55.998Z,10.93
2023-05-16T03:49:27.457Z,9.88
2023-05-16T03:51:54.360Z,10.82
2023-05-16T03:54:22.006Z,11.00
2023-05-16T03:56:48.918Z,11.10
2023-05-16T03:59:18.616Z,12.20
2023-05-16T04:01:45.539Z,14.13
2023-05-16T04:04:12.488Z,14.15
2023-05-16T04:06:39.370Z,15.25
2023-05-16T04:09:06.639Z,14.40
2023-05-16T04:11:34.304Z,14.38
2023-05-16T04:14:01.943Z,14.70
2023-05-16T04:16:29.084Z,16.80
2023-05-16T04:18:56.662Z,15.60
2023-05-16T04:21:23.549Z,15.93
2023-05-16T04:23:50.422Z,15.52
2023-05-16T04:26:17.798Z,16.73
2023-05-16T04:28:44.863Z,17.95
2023-05-16T04:31:11.856Z,16.98
2023-05-16T04:33:38.787Z,17.75
2023-05-16T04:36:06.121Z,22.95
2023-05-16T04:38:34.114Z,18.48
2023-05-16T04:41:02.669Z,18.52
2023-05-16T04:43:30.453Z,18.25
2023-05-16T04:45:59.002Z,17.95
2023-05-16T04:48:26.009Z,16.75
2023-05-16T04:50:52.895Z,16.52
2023-05-16T04:53:19.909Z,13.32
2023-05-16T04:55:50.419Z,13.15
2023-05-16T04:58:18.173Z,15.45
2023-05-16T05:00:45.126Z,12.70
2023-05-16T05:03:12.126Z,13.73
2023-05-16T05:05:39.163Z,14.35
2023-05-16T05:08:06.596Z,12.73
2023-05-16T05:10:33.522Z,17.98
2023-05-16T05:13:00.398Z,15.63
2023-05-16T05:15:27.524Z,15.63
2023-05-16T05:17:54.865Z,15.18
2023-05-16T05:20:22.063Z,16.90
2023-05-16T05:22:49.016Z,15.90
2023-05-16T05:25:15.951Z,15.68
2023-05-16T05:27:42.881Z,14.82
2023-05-16T05:30:10.259Z,14.18
2023-05-16T05:32:37.364Z,12.65
2023-05-16T05:35:04.673Z,13.55
2023-05-16T05:37:31.793Z,9.60
2023-05-16T05:39:58.731Z,5.40
2023-05-16T05:42:25.675Z,4.93
2023-05-16T05:44:52.601Z,5.32
2023-05-16T05:47:19.490Z,6.38
2023-05-16T05:49:46.497Z,6.13
2023-05-16T05:52:13.478Z,6.30
2023-05-16T05:54:40.663Z,6.63
2023-05-16T05:57:07.627Z,6.10
2023-05-16T05:59:34.549Z,6.78
2023-05-16T06:02:01.696Z,6.05
2023-05-16T06:04:28.675Z,5.65
2023-05-16T06:06:55.645Z,5.85
2023-05-16T06:09:22.594Z,6.25
2023-05-16T06:11:50.314Z,6.53
2023-05-16T06:14:17.266Z,7.18
2023-05-16T06:16:45.018Z,6.90
2023-05-16T06:19:16.034Z,6.80
2023-05-16T06:21:43.725Z,6.97
2023-05-16T06:24:11.305Z,6.65
2023-05-16T06:26:38.245Z,7.20
2023-05-16T06:29:05.165Z,6.75
2023-05-16T06:31:32.242Z,6.53
2023-05-16T06:33:59.222Z,5.90
2023-05-16T06:36:26.403Z,5.30
2023-05-16T06:38:53.410Z,5.00
2023-05-16T06:41:21.533Z,5.53
2023-05-16T06:43:48.534Z,3.97
2023-05-16T06:46:15.910Z,4.78
2023-05-16T06:48:45.132Z,4.18
2023-05-16T06:51:12.243Z,3.95
2023-05-16T06:53:39.270Z,4.50
2023-05-16T06:56:06.458Z,4.60
2023-05-16T06:58:33.428Z,4.60
2023-05-16T07:01:00.526Z,4.95
2023-05-16T07:03:28.587Z,4.65
2023-05-16T07:05:55.696Z,4.82
2023-05-16T07:08:22.658Z,5.65
2023-05-16T07:10:49.672Z,6.90
2023-05-16T07:13:16.774Z,6.68
2023-05-16T07:15:43.767Z,6.78
2023-05-16T07:18:10.820Z,6.18
2023-05-16T07:20:37.784Z,7.57
2023-05-16T07:23:04.889Z,8.07
2023-05-16T07:25:32.223Z,7.93
2023-05-16T07:27:59.881Z,8.07
2023-05-16T07:30:27.088Z,8.30
2023-05-16T07:32:54.279Z,7.15
2023-05-16T07:35:21.461Z,7.82
2023-05-16T07:37:48.331Z,8.27
2023-05-16T07:40:15.488Z,7.78
2023-05-16T07:42:42.398Z,7.80
2023-05-16T07:45:09.693Z,8.38
2023-05-16T07:47:36.748Z,9.18
2023-05-16T07:50:03.859Z,9.85
2023-05-16T07:52:31.832Z,10.05
2023-05-16T07:54:58.870Z,9.40
2023-05-16T07:57:25.844Z,9.52
2023-05-16T07:59:53.149Z,9.50
2023-05-16T08:02:20.181Z,10.38
2023-05-16T08:04:47.263Z,10.80
2023-05-16T08:07:14.237Z,9.77
2023-05-16T08:09:41.199Z,10.63
2023-05-16T08:12:09.025Z,9.90
2023-05-16T08:14:37.032Z,9.60
2023-05-16T08:17:05.312Z,11.13
2023-05-16T08:19:33.142Z,10.65
2023-05-16T08:22:00.129Z,11.25
2023-05-16T08:24:27.251Z,13.13
2023-05-16T08:26:54.240Z,13.05
2023-05-16T08:29:21.122Z,14.00
2023-05-16T08:31:48.702Z,14.38
2023-05-16T08:34:16.046Z,14.43
2023-05-16T08:36:43.039Z,14.70
2023-05-16T08:39:11.707Z,14.30
2023-05-16T08:41:39.263Z,15.20
2023-05-16T08:44:06.530Z,16.05
2023-05-16T08:46:33.774Z,15.18
2023-05-16T08:49:01.385Z,14.63
2023-05-16T08:51:30.237Z,13.82
2023-05-16T08:54:03.446Z,13.13
2023-05-16T08:56:30.532Z,13.93
2023-05-16T08:58:58.122Z,12.50
2023-05-16T09:01:25.133Z,11.68
2023-05-16T09:03:52.248Z,12.35
2023-05-16T09:06:19.220Z,9.13
2023-05-16T09:08:46.894Z,8.60
2023-05-16T09:11:13.822Z,8.45
2023-05-16T09:13:40.850Z,23.75
2023-05-16T09:16:14.825Z,10.35
2023-05-16T09:18:44.199Z,12.30
2023-05-16T09:21:11.941Z,14.23
2023-05-16T09:23:39.139Z,11.43
2023-05-16T09:26:08.135Z,13.35
2023-05-16T09:28:37.144Z,15.02
2023-05-16T09:31:04.157Z,14.80
2023-05-16T09:33:31.205Z,17.80
2023-05-16T09:36:01.711Z,19.42
2023-05-16T09:38:28.828Z,21.10
2023-05-16T09:40:55.876Z,18.90
2023-05-16T09:43:27.053Z,18.95
2023-05-16T09:45:54.323Z,19.83
2023-05-16T09:48:21.893Z,19.80
2023-05-16T09:50:52.601Z,19.40
2023-05-16T09:53:28.700Z,21.00
2023-05-16T09:56:08.248Z,23.67
2023-05-16T09:58:37.574Z,21.27
2023-05-16T10:01:05.092Z,22.15
2023-05-16T10:03:34.694Z,22.48
2023-05-16T10:06:02.031Z,22.70
2023-05-16T10:08:31.202Z,20.42
2023-05-16T10:10:58.217Z,21.02
2023-05-16T10:13:36.869Z,21.85
2023-05-16T10:16:08.542Z,24.13
2023-05-16T10:18:36.329Z,22.80
2023-05-16T10:21:16.378Z,22.75
2023-05-16T10:23:43.915Z,24.17
2023-05-16T10:26:11.664Z,21.13
2023-05-16T10:28:38.656Z,26.35
2023-05-16T10:31:05.645Z,23.00
2023-05-16T10:33:32.601Z,27.85
2023-05-16T10:35:59.671Z,26.73
2023-05-16T10:38:26.599Z,27.50
2023-05-16T10:40:53.639Z,26.92
2023-05-16T10:43:27.707Z,24.75
2023-05-16T10:45:59.369Z,26.25
2023-05-16T10:48:36.629Z,28.85
2023-05-16T10:51:04.492Z,25.70
2023-05-16T10:53:35.746Z,25.45
2023-05-16T10:56:03.338Z,27.00
2023-05-16T10:58:39.533Z,28.40
2023-05-16T11:01:19.057Z,25.23
2023-05-16T11:04:01.976Z,24.58
2023-05-16T11:06:32.778Z,27.65
2023-05-16T11:09:09.981Z,28.27
2023-05-16T11:11:53.150Z,26.20
2023-05-16T11:14:33.408Z,25.77
2023-05-16T11:17:10.399Z,25.95
2023-05-16T11:19:50.975Z,25.02
2023-05-16T11:22:21.911Z,22.75
2023-05-16T11:24:56.130Z,23.17
2023-05-16T11:27:36.822Z,22.25
2023-05-16T11:30:06.983Z,21.38
2023-05-16T11:32:35.245Z,22.20
2023-05-16T11:35:02.516Z,21.48
2023-05-16T11:37:29.763Z,21.08
2023-05-16T11:40:04.409Z,20.08
2023-05-16T11:42:34.607Z,18.90
2023-05-16T11:45:06.206Z,19.77
2023-05-16T11:47:33.608Z,19.40
2023-05-16T11:50:00.958Z,16.60
2023-05-16T11:52:28.498Z,16.17
2023-05-16T11:54:57.469Z,14.80
2023-05-16T11:57:24.477Z,16.58
2023-05-16T11:59:51.800Z,16.15
2023-05-16T12:02:18.788Z,15.85
2023-05-16T12:04:50.628Z,15.38
2023-05-16T12:07:17.934Z,15.95
2023-05-16T12:09:53.769Z,13.88
2023-05-16T12:12:23.782Z,14.05
2023-05-16T12:14:50.764Z,14.40
2023-05-16T12:17:17.853Z,14.23
2023-05-16T12:19:46.485Z,13.00
2023-05-16T12:22:18.418Z,13.00
2023-05-16T12:24:45.769Z,12.70
2023-05-16T12:27:12.903Z,12.80
2023-05-16T12:29:39.849Z,13.40
2023-05-16T12:32:08.347Z,12.50
2023-05-16T12:34:35.382Z,12.43
2023-05-16T12:37:02.316Z,13.55
2023-05-16T12:39:29.385Z,12.18
2023-05-16T12:41:56.426Z,12.32
2023-05-16T12:44:25.141Z,11.27
2023-05-16T12:46:52.341Z,11.85
2023-05-16T12:49:25.073Z,11.57
2023-05-16T12:51:52.900Z,12.13
2023-05-16T12:54:20.606Z,11.20
2023-05-16T12:56:47.671Z,10.85
2023-05-16T12:59:15.132Z,11.18
2023-05-16T13:01:42.241Z,11.27
2023-05-16T13:04:09.796Z,11.10
2023-05-16T13:06:56.805Z,10.55
2023-05-16T13:09:25.020Z,11.40
2023-05-16T13:11:52.486Z,9.90
2023-05-16T13:14:19.465Z,9.63
2023-05-16T13:16:46.513Z,10.35
2023-05-16T13:19:13.635Z,10.10
2023-05-16T13:21:40.654Z,9.60
2023-05-16T13:24:07.696Z,9.50
2023-05-16T13:26:35.107Z,9.20
2023-05-16T13:29:02.427Z,7.90
2023-05-16T13:31:29.532Z,8.65
2023-05-16T13:33:56.505Z,9.50
2023-05-16T13:36:23.617Z,8.88
2023-05-16T13:38:50.829Z,9.60
2023-05-16T13:41:17.887Z,9.27
2023-05-16T13:43:44.785Z,9.73
2023-05-16T13:46:11.775Z,8.30
2023-05-16T13:48:38.781Z,9.07
2023-05-16T13:51:06.014Z,8.23
2023-05-16T13:53:34.128Z,8.10
2023-05-16T13:56:01.141Z,8.15
2023-05-16T13:58:28.378Z,7.75
2023-05-16T14:00:55.346Z,8.25
2023-05-16T14:03:23.189Z,8.13
2023-05-16T14:05:50.336Z,7.60
2023-05-16T14:08:17.365Z,7.10
2023-05-16T14:10:44.464Z,6.50
2023-05-16T14:13:11.726Z,5.38
2023-05-16T14:15:38.676Z,5.68
2023-05-16T14:18:06.507Z,5.82
2023-05-16T14:20:33.539Z,5.53
2023-05-16T14:23:00.545Z,4.85
2023-05-16T14:25:27.697Z,5.32
2023-05-16T14:27:54.824Z,5.03
2023-05-16T14:30:22.136Z,5.38
2023-05-16T14:32:49.161Z,4.57
2023-05-16T14:35:16.358Z,4.82
2023-05-16T14:37:43.292Z,4.47
2023-05-16T14:40:10.584Z,5.28
2023-05-16T14:42:37.546Z,6.20
2023-05-16T14:45:04.954Z,5.50
2023-05-16T14:47:31.915Z,5.93
2023-05-16T14:50:02.522Z,6.90
2023-05-16T14:52:29.474Z,6.38
2023-05-16T14:54:56.715Z,7.85
2023-05-16T14:57:23.616Z,9.18
2023-05-16T14:59:51.468Z,8.52
2023-05-16T15:02:19.084Z,8.35
2023-05-16T15:04:53.844Z,7.20
2023-05-16T15:07:30.820Z,9.68
2023-05-16T15:10:00.439Z,7.15
2023-05-16T15:12:27.353Z,6.88
2023-05-16T15:14:54.261Z,10.48
2023-05-16T15:17:21.131Z,6.00
2023-05-16T15:19:49.034Z,5.75
2023-05-16T15:22:16.040Z,6.07
2023-05-16T15:24:43.075Z,5.68
2023-05-16T15:27:10.045Z,6.07
2023-05-16T15:29:36.994Z,5.97
2023-05-16T15:32:04.622Z,6.63
2023-05-16T15:34:32.149Z,6.95
2023-05-16T15:36:59.233Z,5.95
2023-05-16T15:39:26.174Z,5.60
2023-05-16T15:42:09.210Z,5.88
2023-05-16T15:44:37.450Z,5.65
2023-05-16T15:47:04.585Z,5.78
2023-05-16T15:49:31.719Z,7.03
2023-05-16T15:51:58.755Z,6.25
2023-05-16T15:54:25.765Z,5.13
2023-05-16T15:56:52.752Z,5.53
2023-05-16T15:59:19.693Z,5.53
2023-05-16T16:01:46.723Z,6.25
2023-05-16T16:04:13.703Z,5.00
2023-05-16T16:06:40.897Z,5.25
2023-05-16T16:09:08.114Z,5.35
2023-05-16T16:11:35.130Z,5.30
2023-05-16T16:14:02.125Z,4.90
2023-05-16T16:16:29.055Z,5.05
2023-05-16T16:18:55.993Z,5.47
2023-05-16T16:21:23.871Z,5.68
2023-05-16T16:23:50.837Z,5.65
2023-05-16T16:26:17.962Z,5.80
2023-05-16T16:28:44.981Z,5.80
2023-05-16T16:31:12.896Z,5.85
2023-05-16T16:33:41.453Z,5.63
2023-05-16T16:36:09.101Z,5.57
2023-05-16T16:38:36.092Z,4.82
2023-05-16T16:41:02.992Z,5.75
2023-05-16T16:43:29.903Z,5.40
2023-05-16T16:45:56.761Z,6.28
2023-05-16T16:48:23.836Z,5.40
2023-05-16T16:50:52.205Z,6.28
2023-05-16T16:53:19.148Z,6.35
2023-05-16T16:55:46.114Z,6.53
2023-05-16T16:58:13.071Z,7.47
2023-05-16T17:00:40.091Z,6.85
2023-05-16T17:03:07.293Z,6.32
2023-05-16T17:05:34.389Z,6.55
2023-05-16T17:08:01.356Z,6.10
2023-05-16T17:10:28.432Z,6.28
2023-05-16T17:12:55.289Z,6.15
2023-05-16T17:15:22.352Z,6.75
2023-05-16T17:17:49.588Z,6.47
2023-05-16T17:20:16.599Z,5.80
2023-05-16T17:22:43.636Z,6.95
2023-05-16T17:25:10.828Z,6.38
2023-05-16T17:27:37.823Z,6.28
2023-05-16T17:30:05.231Z,6.00
2023-05-16T17:32:32.359Z,6.75
2023-05-16T17:35:03.706Z,7.32
2023-05-16T17:37:30.630Z,6.82
2023-05-16T17:39:57.584Z,5.85
2023-05-16T17:42:24.617Z,5.60
2023-05-16T17:44:52.123Z,6.07
2023-05-16T17:47:19.750Z,5.90
2023-05-16T17:49:47.442Z,5.05
2023-05-16T17:52:15.130Z,4.40
2023-05-16T17:54:41.983Z,4.50
2023-05-16T17:57:08.953Z,3.60
2023-05-16T17:59:36.088Z,3.60
2023-05-16T18:02:04.090Z,4.13
2023-05-16T18:04:31.174Z,3.00
2023-05-16T18:06:58.154Z,2.88
2023-05-16T18:09:25.445Z,2.15
2023-05-16T18:11:53.178Z,2.30
2023-05-16T18:14:20.066Z,1.95
2023-05-16T18:16:47.287Z,2.28
2023-05-16T18:19:14.316Z,3.28
2023-05-16T18:21:41.264Z,2.97
2023-05-16T18:24:08.585Z,2.70
2023-05-16T18:26:35.707Z,2.75
2023-05-16T18:29:03.589Z,3.47
2023-05-16T18:31:33.884Z,2.60
2023-05-16T18:34:03.719Z,2.47
2023-05-16T18:36:30.920Z,2.83
2023-05-16T18:38:57.821Z,2.92
2023-05-16T18:41:24.656Z,2.90
2023-05-16T18:43:51.539Z,1.50
2023-05-16T18:46:18.434Z,2.70
2023-05-16T18:48:45.400Z,2.60
2023-05-16T18:51:12.644Z,2.05
2023-05-16T18:53:39.623Z,4.28
2023-05-16T18:56:06.655Z,2.88
2023-05-16T18:58:33.560Z,2.97
2023-05-16T19:01:00.775Z,2.28
2023-05-16T19:03:27.736Z,2.15
2023-05-16T19:05:54.994Z,2.60
2023-05-16T19:08:25.516Z,2.33
2023-05-16T19:10:54.271Z,2.88
2023-05-16T19:13:22.368Z,2.13
2023-05-16T19:15:49.322Z,2.33
2023-05-16T19:18:17.803Z,2.60
2023-05-16T19:20:45.722Z,2.17
2023-05-16T19:23:12.690Z,2.72
2023-05-16T19:25:45.655Z,2.55
2023-05-16T19:28:13.014Z,2.50
2023-05-16T19:30:40.319Z,2.45
2023-05-16T19:33:07.639Z,2.50
2023-05-16T19:35:34.673Z,2.30
2023-05-16T19:38:01.617Z,1.92
2023-05-16T19:40:28.540Z,2.65
2023-05-16T19:42:55.535Z,2.60
2023-05-16T19:45:22.501Z,2.95
2023-05-16T19:47:49.510Z,2.47
2023-05-16T19:50:16.518Z,2.50
2023-05-16T19:52:43.454Z,2.10
2023-05-16T19:55:10.676Z,2.70
2023-05-16T19:57:38.247Z,2.60
2023-05-16T20:00:06.382Z,2.25
2023-05-16T20:02:39.685Z,1.88
2023-05-16T20:05:07.275Z,2.78
2023-05-16T20:07:34.445Z,2.53
2023-05-16T20:10:01.460Z,2.28
2023-05-16T20:12:28.481Z,2.38
2023-05-16T20:14:55.700Z,2.67
2023-05-16T20:17:23.361Z,2.15
2023-05-16T20:19:50.556Z,2.95
2023-05-16T20:22:19.150Z,2.55
2023-05-16T20:24:46.052Z,2.42
2023-05-16T20:27:12.945Z,2.63
2023-05-16T20:29:39.876Z,2.30
2023-05-16T20:32:07.139Z,2.20
2023-05-16T20:34:34.114Z,2.40
2023-05-16T20:37:00.979Z,2.72
2023-05-16T20:39:28.924Z,2.47
2023-05-16T20:41:55.869Z,2.25
2023-05-16T20:44:23.256Z,2.72
2023-05-16T20:46:50.238Z,2.92
2023-05-16T20:49:17.146Z,3.00
2023-05-16T20:51:44.055Z,2.67
2023-05-16T20:54:11.077Z,2.50
2023-05-16T20:56:37.973Z,3.33
2023-05-16T20:59:04.867Z,2.10
2023-05-16T21:01:31.778Z,2.95
2023-05-16T21:03:58.738Z,2.65
2023-05-16T21:06:25.692Z,2.95
2023-05-16T21:08:52.552Z,2.97
2023-05-16T21:11:19.444Z,2.90
2023-05-16T21:13:46.309Z,2.83
2023-05-16T21:16:13.170Z,2.80
2023-05-16T21:18:40.099Z,2.72
2023-05-16T21:21:07.039Z,3.10
2023-05-16T21:23:34.443Z,3.00
2023-05-16T21:26:01.362Z,3.17
2023-05-16T21:28:28.258Z,2.80
2023-05-16T21:30:55.768Z,2.58
2023-05-16T21:33:22.763Z,3.35
2023-05-16T21:35:49.803Z,3.33
2023-05-16T21:38:16.692Z,3.63
2023-05-16T21:40:43.673Z,3.35
2023-05-16T21:43:10.651Z,3.72
2023-05-16T21:45:37.582Z,3.00
2023-05-16T21:48:04.713Z,3.33
2023-05-16T21:50:31.678Z,3.30
2023-05-16T21:52:58.581Z,3.45
2023-05-16T21:55:25.939Z,3.97
2023-05-16T21:57:52.956Z,3.25
2023-05-16T22:00:19.919Z,3.00
2023-05-16T22:02:48.612Z,3.95
2023-05-16T22:05:19.089Z,3.22
2023-05-16T22:07:46.163Z,3.33
2023-05-16T22:10:13.439Z,3.25
2023-05-16T22:12:40.463Z,2.97
2023-05-16T22:15:07.764Z,3.40
2023-05-16T22:17:34.738Z,3.40
2023-05-16T22:20:02.285Z,3.78
2023-05-16T22:22:29.260Z,3.33
2023-05-16T22:24:56.461Z,2.92
2023-05-16T22:27:23.335Z,3.28
2023-05-16T22:29:50.263Z,2.92
2023-05-16T22:32:17.136Z,3.47
2023-05-16T22:34:44.024Z,3.03
2023-05-16T22:37:10.961Z,3.58
2023-05-16T22:39:37.908Z,3.25
2023-05-16T22:42:05.076Z,3.00
2023-05-16T22:44:31.981Z,3.58
2023-05-16T22:46:58.850Z,3.60
2023-05-16T22:49:25.825Z,3.72
2023-05-16T22:51:52.711Z,4.40
2023-05-16T22:54:19.647Z,3.42
2023-05-16T22:56:46.531Z,3.58
2023-05-16T22:59:13.481Z,2.90
2023-05-16T23:01:40.642Z,3.10
2023-05-16T23:04:07.655Z,3.45
2023-05-16T23:06:34.598Z,3.58
2023-05-16T23:09:02.483Z,3.25
2023-05-16T23:11:29.391Z,3.50
2023-05-16T23:13:56.269Z,3.45
2023-05-16T23:16:23.151Z,3.75
2023-05-16T23:18:50.173Z,3.35
2023-05-16T23:21:17.223Z,2.90
2023-05-16T23:23:44.091Z,3.13
2023-05-16T23:26:11.051Z,3.60
2023-05-16T23:28:38.016Z,3.30
2023-05-16T23:31:04.948Z,3.35
2023-05-16T23:33:31.938Z,3.60
2023-05-16T23:35:58.812Z,3.00
2023-05-16T23:38:27.325Z,3.30
2023-05-16T23:40:54.233Z,3.00
2023-05-16T23:43:21.339Z,3.47
2023-05-16T23:45:48.258Z,4.07
2023-05-16T23:48:15.254Z,2.95
2023-05-16T23:50:42.192Z,2.65
2023-05-16T23:53:09.052Z,2.95
2023-05-16T23:55:35.951Z,2.83
2023-05-16T23:58:02.922Z,2.70
